Terminal Aerodrome Forecast
Issued by NWS Dallas/Fort Worth, TX

Home | Current Version | Previous Version | Text Only | Print | Product List | Glossary On
Versions: 1 2 3 4 5 6 7 8 9 10 11 12 13 14 15 16 17 18 19 20 21 22 23 24 25 26 27 28 29 30 31 32 33 34 35 36 37 38 39 40 41 42 43 44 45
000
FTUS44 KFWD 251140
TAFACT
TAF
KACT 251140Z 2512/2612 16008KT P6SM OVC008
      TEMPO 2512/2514 5SM -DZ BR OVC005
     FM251400 17014KT P6SM BKN016
     FM251800 22011KT 5SM -SHRA VCTS SCT025 OVC035CB
      TEMPO 2519/2522 2SM TSRA BR BKN020CB
     FM252200 18011KT P6SM SCT025 OVC100
     FM260500 16010KT P6SM BKN020
     FM260800 19008KT P6SM BKN007=

USA.gov is the U.S. government's official web portal to all federal, state and local government web resources and services.